Tiempo atmosférico en la estación meteorológica de Jaraicejo, Cáceres (510 m.)



Fecha
DESCASC
Temp. máxima en grados centígrados (hora)
DESCASC
Temp. mínima en grados centígrados (hora)
DESCASC
Temp. media en grados centígrados
DESCASC
Racha de viento máxima en m/sg (hora)
DESCASC
Velocidad máxima media en intervalos de 10 minutos(hora)
DESCASC
Precipitaciones diarias en mm
DESCASC
Precipitaciones de 00:00 a 06:00 en mm
DESCASC
Precipitaciones de 06:00 a 12:00 en mm
DESCASC
Precipitaciones de 12:00 a 18:00 en mm
DESCASC
Precipitaciones de 18:00 a 24:00 en mm
DESCASC
23-06-2019 32.2 (17:00) 16.3 (06:50) 24.3 9.17 (15:20) 5.28 (16:20) 0 0 0 0 0
22-06-2019 32.6 (17:10) 16.3 (06:30) 24.4 10.56 (16:00) 5 (15:00) 0 0 0 0 0
21-06-2019 30.1 (16:10) 11.7 (07:00) 20.9 8.61 (18:20) 3.33 (02:50) 0 0 0 0 0
20-06-2019 27.6 (15:50) 14.2 (00:00) 20.9 10.83 (15:30) 6.39 (15:30) 0 0 0 0 0
19-06-2019 26.2 (16:20) 13.8 (00:00) 20 9.17 (15:30) 5.28 (15:30) 0 0 0 0 0
18-06-2019 26.8 (17:10) 14.8 (00:00) 20.8 16.67 (12:50) 9.44 (17:30) 0 0 0 0 0
17-06-2019 30.9 (17:30) 15.1 (00:00) 23 12.5 (16:10) 7.22 (17:00) 0 0 0 0 0
16-06-2019 30.7 (17:30) 15.4 (00:00) 23.1 9.72 (17:10) 5.83 (16:40) 0 0 0 0 0
15-06-2019 26.1 (18:20) 8.5 (00:00) 17.3 7.5 (18:00) 3.33 (15:30) 0 0 0 0 0
14-06-2019 22.9 (17:00) 10 (00:00) 16.4 13.61 (12:20) 7.5 (12:40) 0 0 0 0 0
13-06-2019 26 (18:20) 9.3 (00:00) 17.7 12.5 (15:50) 7.22 (17:00) 0 0 0 0 0
12-06-2019 27.1 (19:10) 9.7 (00:00) 18.4 8.89 (17:10) 6.39 (02:20) 0 0 0 0 0
11-06-2019 24.6 (16:40) 13 (00:00) 18.8 12.22 (14:40) 7.22 (14:40) 0 0 0 0 0
10-06-2019 27.1 (18:40) 10.5 (00:00) 18.8 9.72 (16:10) 4.72 (19:10) 0 0 0 0 0
09-06-2019 26.4 (18:00) 10.3 (00:00) 18.3 13.61 (17:30) 5.28 (17:30) 0 0 0 0 0
08-06-2019 27.6 (15:50) 10.3 (00:00) 19 12.78 (17:00) 7.22 (10:20) 0 0 0 0 0
07-06-2019 22 (17:30) 7.5 (00:00) 14.8 14.17 (00:10) 8.06 (00:10) 0.2 0.2 0 0 0
06-06-2019 22.5 (17:40) 7.3 (00:00) 14.9 15.56 (23:20) 10.28 (21:00) 0 0 0 0 0
05-06-2019 22.1 (17:10) 9.6 (00:00) 15.9 11.11 (10:50) 6.67 (11:40) 0 0 0 0 0
04-06-2019 26.4 (16:40) 13.9 (00:00) 20.1 11.39 (19:30) 5.83 (14:20) 0 0 0 0 0
03-06-2019 33 (15:40) 18 (00:00) 25.5 13.06 (15:50) 7.78 (17:40) 0 0 0 0 0
02-06-2019 34.5 (16:30) 20.5 (00:00) 27.5 8.33 (16:30) 4.44 (16:30) 0 0 0 0 0
01-06-2019 34.3 (17:40) 18.9 (00:00) 26.6 6.94 (14:20) 3.89 (00:40) 0 0 0 0 0
31-05-2019 33 (16:40) 18.5 (00:00) 25.8 8.06 (18:20) 6.11 (05:10) 0 0 0 0 0
30-05-2019 31 (17:30) 17 (00:00) 24 12.78 (10:30) 10 (10:50) 0 0 0 0 0
29-05-2019 28.5 (18:20) 15.5 (00:00) 22 14.17 (09:10) 10.83 (09:10) 0 0 0 0 0
28-05-2019 30.2 (18:10) 16.6 (00:00) 23.4 10 (23:59) 8.06 (23:59) 0 0 0 0 0
27-05-2019 30.7 (17:40) 16.9 (00:00) 23.8 10.56 (17:30) 5 (15:50) 0 0 0 0 0

Gráficas

Temp. máximas Temp. mínimas Temp. medias Precipitaciones Rachas de viento máximas Velocidades máximas media en intervalos de 10 minutos

Datos horarios

Fecha y hora oficial Temperatura (ºC) Velocidad del viento (km/h) Dirección del viento Racha (km/h) Dirección de racha Precipitación (mm) Presión (hPa) Tendencia (hPa) Humedad (%)
2019-06-25 23:00:00 26.2 3 Sur 8 Sudoeste 0 -- -- 41
2019-06-25 22:00:00 28 6 Sudoeste 27 Sudoeste 0 -- -- 38
2019-06-25 21:00:00 30.9 16 Sur 33 Sur 0 -- -- 32
2019-06-25 20:00:00 32 17 Sur 32 Sur 0 -- -- 30
2019-06-25 19:00:00 32.3 16 Sur 35 Sur 0 -- -- 29
2019-06-25 18:00:00 31.9 19 Sur 36 Sur 0 -- -- 30
2019-06-25 17:00:00 30 18 Sur 33 Sur 0 -- -- 34
2019-06-25 16:00:00 31.5 18 Sur 34 Sudeste 0 -- -- 31
2019-06-25 15:00:00 31 19 Sudoeste 32 Sur 0 -- -- 34
2019-06-25 14:00:00 29.4 13 Sudeste 29 Sudoeste 0 -- -- 35
2019-06-25 13:00:00 27.9 10 Sudeste 22 Sur 0 -- -- 39
2019-06-25 12:00:00 27.2 10 Sudoeste 18 Sudoeste 0 -- -- 40
2019-06-25 11:00:00 23.9 5 Oeste 10 Sudoeste 0 -- -- 45
2019-06-25 10:00:00 21.9 2 Sur 10 Sur 0 -- -- 48
2019-06-25 09:00:00 19.7 4 Sur 8 Este 0 -- -- 53
2019-06-25 08:00:00 17.3 2 Sudeste 6 Sudeste 0 -- -- 63
2019-06-25 07:00:00 17 2 Sur 11 Sudeste 0 -- -- 63
2019-06-25 06:00:00 18 8 Este 15 Este 0 -- -- 61
2019-06-25 05:00:00 16.9 10 Sudeste 15 Este 0 -- -- 65
2019-06-25 04:00:00 16.1 9 Este 13 Este 0 -- -- 66
2019-06-25 03:00:00 15.2 5 Sudeste 6 Sudeste 0 -- -- 68
2019-06-25 02:00:00 15.5 2 Sur 6 Sur 0 -- -- 67
2019-06-25 01:00:00 16.1 4 Sur 7 Sur 0 -- -- 64
2019-06-25 00:00:00 16.5 5 Sur 9 Sudoeste 0 -- -- 64
2019-06-24 23:00:00 16.7 4 Sudoeste 19 Oeste 0 -- -- 62
2019-06-24 22:00:00 17.7 9 Oeste 18 Oeste 0 -- -- 65
2019-06-24 21:00:00 19.4 9 Noroeste 22 Noroeste 0 -- -- 56
2019-06-24 20:00:00 19.9 15 Noroeste 34 Noroeste 0 -- -- 55
2019-06-24 19:00:00 23.5 21 Noroeste 39 Noroeste 0 -- -- 44
2019-06-24 18:00:00 27.5 15 Oeste 33 Oeste 0 -- -- 44
2019-06-24 17:00:00 28.8 14 Oeste 31 Sudoeste 0 -- -- 41
2019-06-24 16:00:00 27.5 13 Oeste 31 Sudoeste 0 -- -- 44
2019-06-24 15:00:00 28.6 15 Sur 30 Sudoeste 0 -- -- 39
2019-06-24 14:00:00 28.3 15 Sudoeste 28 Sudoeste 0 -- -- 41
2019-06-24 13:00:00 27.8 10 Sudoeste 27 Sur 0 -- -- 42
2019-06-24 12:00:00 26.2 9 Sudoeste 21 Sudoeste 0 -- -- 51
2019-06-24 11:00:00 23.9 7 Sur 14 Sur 0 -- -- 59
2019-06-24 10:00:00 22.4 6 Sur 10 Sudoeste 0 -- -- 64
2019-06-24 09:00:00 21.4 5 Sur 12 Sudeste 0 -- -- 68
2019-06-24 08:00:00 19.2 5 Sudeste 9 Sudeste 0 -- -- 71
2019-06-24 07:00:00 18.9 4 Sudeste 11 Sudeste 0 -- -- 71
2019-06-24 06:00:00 19.3 5 Sudeste 8 Sudeste 0 -- -- 65
2019-06-24 05:00:00 19.4 3 Sur 5 Sur 0 -- -- 67
2019-06-24 04:00:00 19.9 4 Sudoeste 7 Sudoeste 0 -- -- 71
2019-06-24 03:00:00 20.7 4 Sudoeste 11 Sudoeste 0 -- -- 64
2019-06-24 02:00:00 21.4 4 Oeste 12 Oeste 0 -- -- 64
2019-06-24 01:00:00 22.2 4 Oeste 15 Oeste 0 -- -- 53
2019-06-24 00:00:00 23.1 8 Noroeste 13 Noroeste 0 -- -- 45
2019-06-23 23:00:00 24 6 Oeste 13 Oeste 0 -- -- 29
2019-06-23 22:00:00 24.9 7 Oeste 18 Oeste 0 -- -- 25
2019-06-23 21:00:00 26.1 8 Oeste 19 Oeste 0 -- -- 22
2019-06-23 20:00:00 27.8 9 Oeste 22 Sudoeste 0 -- -- 19
2019-06-23 19:00:00 29.5 14 Sudoeste 27 Sudoeste 0 -- -- 18
2019-06-23 18:00:00 30.2 18 Sudoeste 33 Sudoeste 0 -- -- 21
2019-06-23 17:00:00 32.2 14 Sudoeste 32 Sudoeste 0 -- -- 20
2019-06-23 16:00:00 31 16 Sudoeste 33 Sur 0 -- -- 22
2019-06-23 15:00:00 30.9 17 Sur 30 Sudoeste 0 -- -- 21
2019-06-23 14:00:00 29.6 14 Sur 29 Sur 0 -- -- 23
2019-06-23 13:00:00 28.5 9 Sudoeste 24 Sudoeste 0 -- -- 26
2019-06-23 12:00:00 26.4 7 Sur 16 Sudoeste 0 -- -- 23
2019-06-23 11:00:00 25 5 Sudoeste 14 Sudoeste 0 -- -- 27
2019-06-23 10:00:00 23.5 4 Sur 14 Sudeste 0 -- -- 31
2019-06-23 09:00:00 20.2 8 Este 15 Sudeste 0 -- -- 38
2019-06-23 08:00:00 18.6 9 Este 16 Este 0 -- -- 41
2019-06-23 07:00:00 16.4 9 Sudeste 15 Este 0 -- -- 42
2019-06-23 06:00:00 16.8 5 Sur 8 Sudoeste 0 -- -- 41
2019-06-23 05:00:00 17.9 5 Oeste 10 Oeste 0 -- -- 39
2019-06-23 04:00:00 18.4 3 Sudoeste 12 Sudoeste 0 -- -- 32
2019-06-23 03:00:00 19.7 4 Sur 10 Sudeste 0 -- -- 28
2019-06-23 02:00:00 21 3 Sudoeste 10 Oeste 0 -- -- 25
2019-06-23 01:00:00 21.9 5 Oeste 11 Noroeste 0 -- -- 21
2019-06-23 00:00:00 23.1 6 Noroeste 18 Noroeste 0 -- -- 20
2019-06-22 23:00:00 24.5 7 Oeste 15 Noroeste 0 -- -- 23
2019-06-22 22:00:00 27.1 6 Oeste 15 Sudoeste 0 -- -- 22
2019-06-22 21:00:00 29.9 8 Oeste 24 Sudoeste 0 -- -- 21
2019-06-22 20:00:00 30.8 13 Sudoeste 31 Sudoeste 0 -- -- 20
2019-06-22 19:00:00 31.2 14 Sudoeste 36 Sur 0 -- -- 19
2019-06-22 18:00:00 31.5 14 Sudoeste 35 Sudoeste 0 -- -- 21
2019-06-22 17:00:00 32 15 Sudoeste 31 Sudoeste 0 -- -- 21
2019-06-22 16:00:00 31.4 17 Sur 38 Sur 0 -- -- 22
2019-06-22 15:00:00 30.4 18 Sur 34 Sur 0 -- -- 26
2019-06-22 14:00:00 30.1 12 Sudoeste 22 Sur 0 -- -- 27
2019-06-22 13:00:00 29.6 11 Sudoeste 23 Noroeste 0 -- -- 28
2019-06-22 12:00:00 27.7 5 Sudoeste 13 Sudoeste 0 -- -- 31
2019-06-22 11:00:00 26.5 5 Oeste 10 Sudoeste 0 -- -- 33
2019-06-22 10:00:00 23 4 Sur 9 Sudeste 0 -- -- 42
2019-06-22 09:00:00 19.8 7 Sudeste 10 Sudeste 0 -- -- 50
2019-06-22 08:00:00 17 4 Este 11 Sudeste 0 -- -- 55
2019-06-22 07:00:00 16.9 8 Sudeste 13 Este 0 -- -- 52
2019-06-22 06:00:00 17.1 7 Este 13 Nordeste 0 -- -- 51
2019-06-22 05:00:00 17 10 Nordeste 16 Nordeste 0 -- -- 51
2019-06-22 04:00:00 18.6 9 Sudeste 13 Este 0 -- -- 48
2019-06-22 03:00:00 19 10 Sudeste 17 Este 0 -- -- 47
2019-06-22 02:00:00 21 12 Este 17 Este 0 -- -- 41
2019-06-22 01:00:00 20.2 5 Nordeste 10 Este 0 -- -- 40
2019-06-22 00:00:00 20.6 8 Norte 13 Noroeste 0 -- -- 40
2019-06-21 23:00:00 23.6 8 Noroeste 14 Noroeste 0 -- -- 37
2019-06-21 22:00:00 24.6 6 Noroeste 15 Oeste 0 -- -- 33
2019-06-21 21:00:00 28.1 10 Oeste 21 Oeste 0 -- -- 27
2019-06-21 20:00:00 28.9 10 Noroeste 25 Oeste 0 -- -- 24
2019-06-21 19:00:00 29.6 9 Oeste 31 Sur 0 -- -- 26
2019-06-21 18:00:00 29.8 10 Oeste 26 Sudoeste 0 -- -- 27
2019-06-21 17:00:00 29.7 9 Oeste 26 Sudoeste 0 -- -- 27
2019-06-21 16:00:00 29 10 Norte 21 Oeste 0 -- -- 28
2019-06-21 15:00:00 27.9 9 Oeste 24 Oeste 0 -- -- 30
2019-06-21 14:00:00 26.3 9 Oeste 19 Sudoeste 0 -- -- 33
2019-06-21 13:00:00 24.1 6 Oeste 18 Sudoeste 0 -- -- 45
2019-06-21 12:00:00 22.1 7 Sudoeste 17 Sudoeste 0 -- -- 50
2019-06-21 11:00:00 19.9 7 Sudoeste 15 Sudoeste 0 -- -- 58
2019-06-21 10:00:00 17.2 8 Sur 13 Sur 0 -- -- 66
2019-06-21 09:00:00 14.6 9 Sur 13 Sur 0 -- -- 74
2019-06-21 08:00:00 13.3 8 Sur 13 Sur 0 -- -- 79
2019-06-21 07:00:00 11.7 7 Sudeste 13 Sudeste 0 -- -- 84
2019-06-21 06:00:00 12.5 10 Sudeste 14 Sudeste 0 -- -- 80
2019-06-21 05:00:00 13.2 8 Sur 15 Sur 0 -- -- 77
2019-06-21 04:00:00 13.9 7 Sur 15 Sur 0 -- -- 74
2019-06-21 03:00:00 15.4 10 Sudoeste 18 Sudoeste 0 -- -- 68
2019-06-21 02:00:00 16.5 7 Sudoeste 15 Sudoeste 0 -- -- 65
2019-06-21 01:00:00 17.5 7 Sudoeste 28 Noroeste 0 -- -- 61
2019-06-21 00:00:00 19 12 Oeste 26 Oeste 0 -- -- 56
2019-06-20 23:00:00 20.6 11 Oeste 24 Oeste 0 -- -- 50
2019-06-20 22:00:00 22.6 9 Oeste 25 Sudoeste 0 -- -- 41
2019-06-20 21:00:00 26.3 12 Sudoeste 24 Sudoeste 0 -- -- 33
2019-06-20 20:00:00 27.3 9 Sudoeste 25 Sudoeste 0 -- -- 30
2019-06-20 19:00:00 27.3 14 Sudoeste 32 Sudoeste 0 -- -- 30
2019-06-20 18:00:00 26.8 14 Sudoeste 35 Sudoeste 0 -- -- 32
2019-06-20 17:00:00 27.5 15 Sudoeste 34 Sudoeste 0 -- -- 34
2019-06-20 16:00:00 27.6 17 Sudoeste 39 Sudoeste 0 -- -- 35
2019-06-20 15:00:00 26.6 15 Sudoeste 28 Sudoeste 0 -- -- 38
2019-06-20 14:00:00 25.3 17 Sudoeste 29 Sudoeste 0 -- -- 42
2019-06-20 13:00:00 25.5 10 Sudoeste 23 Sudoeste 0 -- -- 41
2019-06-20 12:00:00 23.4 9 Sudoeste 19 Oeste 0 -- -- 49
2019-06-20 11:00:00 23 7 Sudoeste 15 Sudoeste 0 -- -- 50
2019-06-20 10:00:00 19.1 7 Sudeste 13 Sur 0 -- -- 64
2019-06-20 09:00:00 17 5 Sudeste 11 Sudeste 0 -- -- 72
2019-06-20 08:00:00 15 8 Sudeste 13 Sudeste 0 -- -- 79
2019-06-20 07:00:00 14.2 7 Sudeste 10 Sudeste 0 -- -- 84
2019-06-20 06:00:00 14.7 6 Sudeste 12 Sudeste 0 -- -- 80
2019-06-20 05:00:00 15.1 10 Sudeste 14 Sudeste 0 -- -- 76
2019-06-20 04:00:00 15.5 6 Este 8 Sudeste 0 -- -- 74
2019-06-20 03:00:00 16.3 2 Sudoeste 10 Sudoeste 0 -- -- 73
2019-06-20 02:00:00 17.4 4 Oeste 14 Oeste 0 -- -- 68
2019-06-20 01:00:00 18.4 6 Oeste 14 Oeste 0 -- -- 63
2019-06-20 00:00:00 19.4 5 Oeste 12 Oeste 0 -- -- 59
2019-06-19 23:00:00 20.2 6 Oeste 14 Sudoeste 0 -- -- 56
2019-06-19 22:00:00 21.4 5 Sudoeste 22 Sudoeste 0 -- -- 51
2019-06-19 21:00:00 23.8 4 Oeste 20 Sudoeste 0 -- -- 45
2019-06-19 20:00:00 24.9 5 Oeste 25 Sudoeste 0 -- -- 43
2019-06-19 19:00:00 25.9 11 Sudoeste 30 Sudoeste 0 -- -- 38
2019-06-19 18:00:00 25.2 7 Oeste 28 Sudoeste 0 -- -- 41
2019-06-19 17:00:00 25 12 Sudoeste 32 Sudoeste 0 -- -- 42
2019-06-19 16:00:00 25 15 Sudoeste 33 Sudoeste 0 -- -- 43
2019-06-19 15:00:00 24.3 10 Oeste 26 Oeste 0 -- -- 45
2019-06-19 14:00:00 23.4 15 Sudoeste 25 Oeste 0 -- -- 50
2019-06-19 13:00:00 21.4 6 Oeste 18 Sudoeste 0 -- -- 58
2019-06-19 12:00:00 20 6 Sudoeste 15 Sudoeste 0 -- -- 66
2019-06-19 11:00:00 17.9 6 Sudoeste 10 Sudoeste 0 -- -- 78
2019-06-19 10:00:00 16.6 3 Oeste 16 Sudoeste 0 -- -- 89
2019-06-19 09:00:00 16.5 9 Sudoeste 15 Sudoeste 0 -- -- 80
2019-06-19 08:00:00 15.3 5 Sur 10 Sudeste 0 -- -- 83
2019-06-19 07:00:00 14.2 5 Sur 10 Sur 0 -- -- 84
2019-06-19 06:00:00 13.9 3 Sur 7 Sur 0 -- -- 77
2019-06-19 05:00:00 14.5 3 Sudoeste 11 Sudoeste 0 -- -- 72
2019-06-19 04:00:00 15.1 4 Sur 9 Sudoeste 0 -- -- 69
2019-06-19 03:00:00 16.1 5 Sudoeste 15 Sudoeste 0 -- -- 64
2019-06-19 02:00:00 17.5 8 Sudoeste 21 Sudoeste 0 -- -- 58
2019-06-19 01:00:00 19 12 Oeste 27 Oeste 0 -- -- 54
2019-06-19 00:00:00 19.9 13 Sudoeste 21 Sudoeste 0 -- -- 62
2019-06-18 23:00:00 20.5 12 Sudoeste 29 Sudoeste 0 -- -- 59
2019-06-18 22:00:00 21.7 18 Sudoeste 41 Sudoeste 0 -- -- 55
2019-06-18 21:00:00 23.3 19 Sudoeste 36 Sudoeste 0 -- -- 49
2019-06-18 20:00:00 25.8 20 Sudoeste 46 Sudoeste 0 -- -- 40
2019-06-18 19:00:00 26.8 19 Sudoeste 40 Sudoeste 0 -- -- 36
2019-06-18 18:00:00 25.6 26 Sudoeste 55 Sudoeste 0 -- -- 38
2019-06-18 17:00:00 26.1 27 Sudoeste 45 Sudoeste 0 -- -- 40
2019-06-18 16:00:00 25.3 26 Sudoeste 48 Sudoeste 0 -- -- 42
2019-06-18 15:00:00 25.3 28 Sudoeste 47 Sudoeste 0 -- -- 41
2019-06-18 14:00:00 25.4 24 Sudoeste 41 Sudoeste 0 -- -- 31
2019-06-18 13:00:00 24.7 21 Sur 60 Sudoeste 0 -- -- 26
2019-06-18 12:00:00 23.5 19 Sudoeste 34 Sur 0 -- -- 26
2019-06-18 11:00:00 21.6 17 Sudoeste 29 Sudoeste 0 -- -- 30
2019-06-18 10:00:00 19.6 9 Sur 17 Sur 0 -- -- 39
2019-06-18 09:00:00 17.9 6 Sur 12 Sur 0 -- -- 42
2019-06-18 08:00:00 16.3 5 Sudeste 12 Sur 0 -- -- 49
2019-06-18 07:00:00 14.8 5 Sur 11 Sudoeste 0 -- -- 52
2019-06-18 06:00:00 15.4 7 Sudoeste 16 Sudoeste 0 -- -- 51
2019-06-18 05:00:00 17.3 9 Sudoeste 15 Sudoeste 0 -- -- 46
2019-06-18 04:00:00 18.2 7 Sudoeste 14 Sudoeste 0 -- -- 35
2019-06-18 03:00:00 19.4 7 Sudoeste 22 Sudoeste 0 -- -- 31
2019-06-18 02:00:00 21.3 15 Sudoeste 26 Sudoeste 0 -- -- 26
2019-06-18 01:00:00 22.2 17 Sudoeste 22 Sudoeste 0 -- -- 24
2019-06-18 00:00:00 24 14 Sudoeste 17 Sudoeste 0 -- -- 23
2019-06-17 23:00:00 23.9 6 Sudoeste 12 Sudoeste 0 -- -- 22
2019-06-17 22:00:00 25 4 Sudoeste 18 Sudoeste 0 -- -- 20
2019-06-17 21:00:00 27.2 10 Sudoeste 24 Sudoeste 0 -- -- 17
2019-06-17 20:00:00 29.8 18 Sudoeste 32 Sudoeste 0 -- -- 13
2019-06-17 19:00:00 29.9 18 Sur 40 Sudoeste 0 -- -- 14
2019-06-17 18:00:00 30.9 19 Sur 39 Sur 0 -- -- 15
2019-06-17 17:00:00 30.6 26 Sudoeste 45 Sudoeste 0 -- -- 17
2019-06-17 16:00:00 29.8 23 Sudoeste 37 Sudoeste 0 -- -- 17
2019-06-17 15:00:00 29 21 Sudoeste 36 Sur 0 -- -- 15
2019-06-17 14:00:00 27.9 20 Sur 36 Sur 0 -- -- 16
2019-06-17 13:00:00 27.2 15 Sudeste 37 Sur 0 -- -- 21
2019-06-17 12:00:00 25.6 10 Sur 27 Sudoeste 0 -- -- 31
2019-06-17 11:00:00 24.4 6 Sudoeste 15 Sudoeste 0 -- -- 33
2019-06-17 10:00:00 21.7 6 Sudeste 13 Sudeste 0 -- -- 42
2019-06-17 09:00:00 19.2 6 Sudeste 15 Sudeste 0 -- -- 49
2019-06-17 08:00:00 16.6 10 Sudeste 14 Sudeste 0 -- -- 52
2019-06-17 07:00:00 15.2 10 Sudeste 13 Sudeste 0 -- -- 52
2019-06-17 06:00:00 15.6 9 Sudeste 13 Sudeste 0 -- -- 51
2019-06-17 05:00:00 15.8 9 Sudeste 12 Sudeste 0 -- -- 45
2019-06-17 04:00:00 16.6 8 Sudeste 10 Sudeste 0 -- -- 37
2019-06-17 03:00:00 17.7 4 Sudeste 10 Sudeste 0 -- -- 34
2019-06-17 02:00:00 18.9 2 Sur 9 Sudoeste 0 -- -- 35
2019-06-17 01:00:00 20.3 4 Noroeste 10 Oeste 0 -- -- 34
2019-06-17 00:00:00 20.8 4 Sur 7 Sur 0 -- -- 27
2019-06-16 23:00:00 21.8 4 Sudoeste 12 Sudoeste 0 -- -- 23
2019-06-16 22:00:00 24.5 8 Sur 19 Sudoeste 0 -- -- 15
2019-06-16 21:00:00 27.9 14 Sudoeste 22 Sudoeste 0 -- -- 16
2019-06-16 20:00:00 28.4 8 Sudoeste 25 Sur 0 -- -- 14
2019-06-16 19:00:00 29.1 14 Sur 26 Sudoeste 0 -- -- 12
2019-06-16 18:00:00 29.3 13 Sur 35 Sudoeste 0 -- -- 15
2019-06-16 17:00:00 29.1 20 Sur 33 Sudoeste 0 -- -- 16
2019-06-16 16:00:00 29.8 12 Sudoeste 28 Sur 0 -- -- 16
2019-06-16 15:00:00 29.7 5 Sudoeste 26 Sudoeste 0 -- -- 19
2019-06-16 14:00:00 28.9 10 Sudoeste 22 Sudoeste 0 -- -- 20
2019-06-16 13:00:00 27.5 6 Norte 17 Sudoeste 0 -- -- 22
2019-06-16 12:00:00 25.6 4 Noroeste 13 Noroeste 0 -- -- 24
2019-06-16 11:00:00 24.5 6 Sudoeste 11 Sudoeste 0 -- -- 26
2019-06-16 10:00:00 21.6 4 Oeste 8 Noroeste 0 -- -- 32
2019-06-16 09:00:00 19.5 0 Calma 10 Sudeste 0 -- -- 36
2019-06-16 08:00:00 17.3 7 Este 13 Este 0 -- -- 38
2019-06-16 07:00:00 15.4 8 Este 15 Este 0 -- -- 43
2019-06-16 06:00:00 16.1 11 Este 15 Este 0 -- -- 41
2019-06-16 05:00:00 16.3 10 Este 14 Este 0 -- -- 42
2019-06-16 04:00:00 16.5 10 Este 14 Este 0 -- -- 42
2019-06-16 03:00:00 17 10 Este 15 Este 0 -- -- 40
2019-06-16 02:00:00 17.5 9 Este 13 Este 0 -- -- 39
2019-06-16 01:00:00 18 9 Sudeste 15 Sudeste 0 -- -- 36
2019-06-16 00:00:00 18.5 6 Sur 12 Sudeste 0 -- -- 31
2019-06-15 23:00:00 19.3 5 Oeste 9 Oeste 0 -- -- 29
2019-06-15 22:00:00 21.1 4 Oeste 11 Sudoeste 0 -- -- 27
2019-06-15 21:00:00 25.4 5 Oeste 21 Oeste 0 -- -- 21
2019-06-15 20:00:00 25.4 6 Noroeste 18 Sudoeste 0 -- -- 21
2019-06-15 19:00:00 25.8 8 Sudoeste 21 Sudoeste 0 -- -- 21
2019-06-15 18:00:00 25.7 6 Oeste 27 Sudeste 0 -- -- 23
2019-06-15 17:00:00 25.6 9 Sudoeste 21 Sudoeste 0 -- -- 23
2019-06-15 16:00:00 24 6 Sudeste 22 Sudoeste 0 -- -- 26
2019-06-15 15:00:00 23.1 9 Sudoeste 21 Sur 0 -- -- 27
2019-06-15 14:00:00 22.9 8 Sudoeste 19 Noroeste 0 -- -- 29
2019-06-15 13:00:00 21 9 Oeste 20 Sudoeste 0 -- -- 32
2019-06-15 12:00:00 19.3 10 Sudoeste 21 Oeste 0 -- -- 38
2019-06-15 11:00:00 17.4 7 Oeste 19 Sudoeste 0 -- -- 45
2019-06-15 10:00:00 14.7 6 Sudoeste 14 Sudoeste 0 -- -- 57
2019-06-15 09:00:00 12.3 7 Sur 10 Sur 0 -- -- 67
2019-06-15 08:00:00 10.2 6 Sudeste 12 Sudeste 0 -- -- 73
2019-06-15 07:00:00 8.8 6 Sudeste 9 Este 0 -- -- 78
2019-06-15 06:00:00 8.8 3 Sudeste 12 Oeste 0 -- -- 78
2019-06-15 05:00:00 9.3 4 Sudoeste 11 Sudoeste 0 -- -- 75
2019-06-15 04:00:00 9.9 4 Sudoeste 6 Sudoeste 0 -- -- 71
2019-06-15 03:00:00 11.2 4 Oeste 13 Sudoeste 0 -- -- 67
2019-06-15 02:00:00 12.5 8 Oeste 22 Oeste 0 -- -- 62
2019-06-15 01:00:00 13.3 9 Oeste 21 Oeste 0 -- -- 61
2019-06-15 00:00:00 13.7 8 Oeste 18 Oeste 0 -- -- 58
2019-06-14 23:00:00 14.5 8 Oeste 22 Sudoeste 0 -- -- 54
2019-06-14 22:00:00 16 10 Sudoeste 32 Sudoeste 0 -- -- 47
2019-06-14 21:00:00 18.7 12 Oeste 34 Oeste 0 -- -- 37
2019-06-14 20:00:00 20.6 21 Oeste 40 Oeste 0 -- -- 33
2019-06-14 19:00:00 21.4 18 Sudoeste 44 Sudoeste 0 -- -- 30
2019-06-14 18:00:00 22.2 16 Oeste 44 Sudoeste 0 -- -- 28
2019-06-14 17:00:00 22.9 18 Sudoeste 40 Sudoeste 0 -- -- 26
2019-06-14 16:00:00 20.8 19 Sudoeste 41 Sudoeste 0 -- -- 33
2019-06-14 15:00:00 20.7 20 Sudoeste 39 Sudoeste 0 -- -- 34
2019-06-14 14:00:00 19.7 22 Sudoeste 41 Sudoeste 0 -- -- 33
2019-06-14 13:00:00 18.6 24 Sudoeste 49 Sudoeste 0 -- -- 36
2019-06-14 12:00:00 18 24 Sudoeste 43 Sudoeste 0 -- -- 35
2019-06-14 11:00:00 16.3 18 Sur 32 Sur 0 -- -- 44
2019-06-14 10:00:00 14.3 15 Sudoeste 26 Sur 0 -- -- 50
2019-06-14 09:00:00 12.4 7 Sur 14 Sudoeste 0 -- -- 59
2019-06-14 08:00:00 10.9 9 Sudeste 16 Sudeste 0 -- -- 63
2019-06-14 07:00:00 10.3 9 Sudeste 13 Sudeste 0 -- -- 67
2019-06-14 06:00:00 10.2 8 Sudeste 12 Sudeste 0 -- -- 67
2019-06-14 05:00:00 10.9 6 Sudoeste 13 Sudoeste 0 -- -- 65
2019-06-14 04:00:00 12 8 Sur 14 Sur 0 -- -- 60
2019-06-14 03:00:00 13.3 7 Sur 17 Sudoeste 0 -- -- 53
2019-06-14 02:00:00 14.3 8 Sudoeste 23 Sudoeste 0 -- -- 48
2019-06-14 01:00:00 16.2 10 Sudoeste 28 Sudoeste 0 -- -- 42
2019-06-14 00:00:00 18.2 9 Sudoeste 24 Sudoeste 0 -- -- 33
2019-06-13 23:00:00 20.4 18 Sudoeste 30 Sudoeste 0 -- -- 26
2019-06-13 22:00:00 21.7 7 Sudoeste 14 Sudoeste 0 -- -- 23
2019-06-13 21:00:00 23.5 9 Sudoeste 23 Sudoeste 0 -- -- 18
2019-06-13 20:00:00 24 10 Sudoeste 24 Sudoeste 0 -- -- 18
2019-06-13 19:00:00 24.7 17 Sudoeste 36 Sudoeste 0 -- -- 15
2019-06-13 18:00:00 25.4 24 Sudoeste 39 Sudoeste 0 -- -- 16
2019-06-13 17:00:00 25 26 Sudoeste 44 Sudoeste -- -- -- 17
2019-06-13 16:00:00 25.6 18 Sudoeste 45 Sudoeste 0 -- -- 17
2019-06-13 15:00:00 24.2 19 Sudoeste 39 Sudoeste 0 -- -- 17
2019-06-13 14:00:00 22.7 18 Sur 35 Sudoeste 0 -- -- 18
2019-06-13 13:00:00 20.8 17 Sur 33 Sur 0 -- -- 23
2019-06-13 12:00:00 18.9 17 Sur 26 Sudoeste 0 -- -- 28
2019-06-13 11:00:00 17 13 Sudoeste 21 Sudoeste 0 -- -- 37
2019-06-13 10:00:00 14.6 4 Sur 11 Sudoeste 0 -- -- 49
2019-06-13 09:00:00 12.4 6 Sur 12 Sudeste 0 -- -- 56
2019-06-13 08:00:00 10.5 8 Sudeste 10 Sudeste 0 -- -- 62
2019-06-13 07:00:00 9.4 7 Sudeste 10 Sudeste 0 -- -- 63
2019-06-13 06:00:00 10.4 4 Sudoeste 11 Sudoeste 0 -- -- 60
2019-06-13 05:00:00 12.5 7 Sur 11 Sudeste 0 -- -- 54
2019-06-13 04:00:00 12.7 9 Sudeste 14 Sudeste 0 -- -- 54
2019-06-13 03:00:00 14.2 6 Sudeste 13 Sudoeste 0 -- -- 50
2019-06-13 02:00:00 15.4 8 Sudoeste 15 Oeste 0 -- -- 48
2019-06-13 01:00:00 16.8 8 Oeste 17 Oeste 0 -- -- 42
2019-06-13 00:00:00 18.6 8 Oeste 23 Oeste 0 -- -- 28
2019-06-12 23:00:00 19.8 10 Oeste 26 Oeste 0 -- -- 20
2019-06-12 22:00:00 21.5 10 Sudoeste 23 Sudoeste 0 -- -- 17
2019-06-12 21:00:00 24.8 14 Sudoeste 28 Sudoeste 0 -- -- 15
2019-06-12 20:00:00 26.2 9 Sudoeste 30 Oeste 0 -- -- 14
2019-06-12 19:00:00 27 10 Oeste 30 Sudoeste 0 -- -- 14
2019-06-12 18:00:00 27 11 Sudoeste 32 Sudoeste 0 -- -- 14
2019-06-12 17:00:00 26.1 12 Sur 31 Sudoeste 0 -- -- 12
2019-06-12 16:00:00 25.5 7 Sudoeste 27 Sudoeste 0 -- -- 14
2019-06-12 15:00:00 24.6 10 Noroeste 22 Oeste 0 -- -- 15
2019-06-12 14:00:00 24.3 8 Oeste 25 Sur 0 -- -- 15
2019-06-12 13:00:00 22.3 9 Sudeste 26 Sudoeste 0 -- -- 19
2019-06-12 12:00:00 21.6 8 Oeste 16 Sudeste 0 -- -- 22
2019-06-12 11:00:00 19.9 4 Sudoeste 13 Oeste 0 -- -- 25
2019-06-12 10:00:00 17.4 4 Sudoeste 8 Nordeste 0 -- -- 30
2019-06-12 09:00:00 15.8 6 Este 15 Este 0 -- -- 32
2019-06-12 08:00:00 13 7 Este 12 Este 0 -- -- 39
2019-06-12 07:00:00 9.9 6 Nordeste 14 Norte 0 -- -- 43
2019-06-12 06:00:00 10.8 12 Norte 18 Norte 0 -- -- 40
2019-06-12 05:00:00 11.9 10 Norte 15 Norte 0 -- -- 36
2019-06-12 04:00:00 13.5 12 Nordeste 22 Nordeste 0 -- -- 33
2019-06-12 03:00:00 14.7 20 Nordeste 29 Nordeste 0 -- -- 30
2019-06-12 02:00:00 15.3 19 Nordeste 24 Nordeste 0 -- -- 30
2019-06-12 01:00:00 15 18 Nordeste 22 Nordeste 0 -- -- 29
2019-06-12 00:00:00 13.4 10 Norte 13 Norte 0 -- -- 31
2019-06-11 23:00:00 16 9 Norte 16 Norte 0 -- -- 26
2019-06-11 22:00:00 18.3 8 Norte 21 Noroeste 0 -- -- 22
2019-06-11 21:00:00 21.9 10 Norte 27 Norte 0 -- -- 18
2019-06-11 20:00:00 22.8 16 Norte 33 Norte 0 -- -- 17
2019-06-11 19:00:00 23.7 17 Norte 34 Norte 0 -- -- 18
2019-06-11 18:00:00 24 17 Norte 39 Noroeste 0 -- -- 22
2019-06-11 17:00:00 24.5 21 Norte 43 Norte 0 -- -- 23
2019-06-11 16:00:00 23.8 17 Noroeste 41 Noroeste 0 -- -- 25
2019-06-11 15:00:00 23.8 22 Norte 44 Noroeste 0 -- -- 26
2019-06-11 14:00:00 22.8 20 Noroeste 36 Noroeste 0 -- -- 31
2019-06-11 13:00:00 21.9 16 Noroeste 40 Oeste 0 -- -- 33
2019-06-11 12:00:00 21.1 20 Noroeste 41 Noroeste 0 -- -- 36
2019-06-11 11:00:00 19.1 19 Noroeste 40 Oeste 0 -- -- 43
2019-06-11 10:00:00 16.8 24 Noroeste 39 Noroeste 0 -- -- 50
2019-06-11 09:00:00 14.9 21 Noroeste 36 Oeste 0 -- -- 56
2019-06-11 08:00:00 13.7 10 Oeste 31 Noroeste 0 -- -- 60
2019-06-11 07:00:00 13.4 13 Oeste 26 Noroeste 0 -- -- 61
2019-06-11 06:00:00 13.8 7 Oeste 19 Oeste 0 -- -- 60
2019-06-11 05:00:00 13 7 Oeste 13 Sudoeste 0 -- -- 60
2019-06-11 04:00:00 14 8 Sudoeste 17 Sudoeste 0 -- -- 56
2019-06-11 03:00:00 14.7 6 Oeste 19 Oeste 0 -- -- 54
2019-06-11 02:00:00 16 7 Oeste 20 Oeste 0 -- -- 50
2019-06-11 01:00:00 17.5 12 Noroeste 24 Oeste 0 -- -- 43
2019-06-11 00:00:00 19.1 13 Noroeste 26 Oeste 0 -- -- 37
2019-06-10 23:00:00 20.2 11 Noroeste 19 Noroeste 0 -- -- 31
2019-06-10 22:00:00 21.4 8 Noroeste 25 Oeste 0 -- -- 26
2019-06-10 21:00:00 23.8 13 Noroeste 26 Oeste 0 -- -- 20
2019-06-10 20:00:00 25.2 13 Oeste 30 Oeste 0 -- -- 17
2019-06-10 19:00:00 26.8 12 Oeste 29 Noroeste 0 -- -- 17
2019-06-10 18:00:00 26.7 13 Oeste 27 Sudoeste 0 -- -- 17
2019-06-10 17:00:00 26.3 12 Oeste 35 Oeste 0 -- -- 19
2019-06-10 16:00:00 25.7 11 Noroeste 26 Oeste 0 -- -- 24
2019-06-10 15:00:00 25.2 11 Oeste 26 Oeste 0 -- -- 25
2019-06-10 14:00:00 24 11 Sudoeste 29 Noroeste 0 -- -- 26
2019-06-10 13:00:00 22.8 11 Oeste 25 Oeste 0 -- -- 33
2019-06-10 12:00:00 21 9 Noroeste 26 Sudoeste 0 -- -- 38
2019-06-10 11:00:00 19.2 8 Sudoeste 18 Sudoeste 0 -- -- 45
2019-06-10 10:00:00 15.5 5 Sudoeste 11 Sudoeste 0 -- -- 58
2019-06-10 09:00:00 13.1 4 Sur 10 Sudeste 0 -- -- 66
2019-06-10 08:00:00 11.7 6 Sudeste 14 Sudeste 0 -- -- 71
2019-06-10 07:00:00 10.6 9 Sudeste 14 Sudeste 0 -- -- 74
2019-06-10 06:00:00 11.2 4 Sudeste 10 Sudeste 0 -- -- 71
2019-06-10 05:00:00 11.7 8 Sudeste 10 Sudeste 0 -- -- 68
2019-06-10 04:00:00 12.6 5 Sur 8 Sur 0 -- -- 64
2019-06-10 03:00:00 13.7 3 Sur 10 Sudoeste 0 -- -- 59
2019-06-10 02:00:00 14.9 5 Oeste 14 Oeste 0 -- -- 55
2019-06-10 01:00:00 16.1 5 Oeste 16 Oeste 0 -- -- 51
2019-06-10 00:00:00 17.5 8 Oeste 26 Oeste 0 -- -- 46
2019-06-09 23:00:00 19 14 Oeste 31 Oeste 0 -- -- 40
2019-06-09 22:00:00 20.5 14 Oeste 32 Oeste 0 -- -- 33
2019-06-09 21:00:00 23.5 13 Oeste 32 Sudoeste 0 -- -- 27
2019-06-09 20:00:00 24 12 Oeste 36 Sudoeste 0 -- -- 25
2019-06-09 19:00:00 25.9 14 Sudoeste 33 Sudoeste 0 -- -- 21
2019-06-09 18:00:00 26.4 13 Sudoeste 49 Sudoeste 0 -- -- 21
2019-06-09 17:00:00 26.1 14 Oeste 37 Oeste 0 -- -- 25
2019-06-09 16:00:00 25.1 12 Oeste 32 Sudoeste 0 -- -- 29
2019-06-09 15:00:00 24.2 12 Sudoeste 28 Sudoeste 0 -- -- 28
2019-06-09 14:00:00 23.3 12 Oeste 31 Sudoeste 0 -- -- 23
2019-06-09 13:00:00 21 13 Sudoeste 25 Sur 0 -- -- 26
2019-06-09 12:00:00 18.9 11 Sudoeste 21 Sudoeste 0 -- -- 31
2019-06-09 11:00:00 16.5 7 Sudoeste 15 Sudoeste 0 -- -- 42
2019-06-09 10:00:00 14.1 6 Sur 11 Sudoeste 0 -- -- 51
2019-06-09 09:00:00 11.8 6 Sudoeste 11 Sudoeste 0 -- -- 60
2019-06-09 08:00:00 10.3 5 Sudoeste 10 Sudoeste 0 -- -- 66
2019-06-09 07:00:00 11.2 6 Sudoeste 13 Sudoeste 0 -- -- 61
2019-06-09 06:00:00 12.6 8 Sudeste 17 Sudeste 0 -- -- 58
2019-06-09 05:00:00 13.2 12 Sudeste 15 Sudeste 0 -- -- 59
2019-06-09 04:00:00 13.8 5 Sur 9 Sur 0 -- -- 56
2019-06-09 03:00:00 14.8 6 Sur 12 Sudoeste 0 -- -- 54
2019-06-09 02:00:00 15.8 5 Sudoeste 14 Sudoeste 0 -- -- 51
2019-06-09 01:00:00 17.5 6 Oeste 18 Oeste 0 -- -- 45
2019-06-09 00:00:00 19.2 8 Oeste 22 Oeste 0 -- -- 33
2019-06-08 23:00:00 20.6 6 Oeste 14 Oeste 0 -- -- 24
2019-06-08 22:00:00 21.6 4 Oeste 9 Sudoeste 0 -- -- 21
2019-06-08 21:00:00 23.1 6 Sudoeste 22 Sudoeste 0 -- -- 20
2019-06-08 20:00:00 25.2 13 Sudoeste 26 Sudoeste 0 -- -- 18
2019-06-08 19:00:00 26 14 Sudoeste 30 Sudoeste 0 -- -- 16
2019-06-08 18:00:00 26.4 15 Sur 29 Sudoeste 0 -- -- 16
2019-06-08 17:00:00 26.7 14 Sudoeste 46 Oeste 0 -- -- 16
2019-06-08 16:00:00 27.3 14 Sudoeste 29 Sudoeste 0 -- -- 15
2019-06-08 15:00:00 26.3 10 Sudoeste 22 Sudoeste 0 -- -- 19
2019-06-08 14:00:00 24.7 5 Este 22 Sur 0 -- -- 20
2019-06-08 13:00:00 24 6 Norte 23 Este 0 -- -- 23
2019-06-08 12:00:00 22.7 9 Nordeste 27 Nordeste 0 -- -- 24
2019-06-08 11:00:00 20.9 18 Nordeste 33 Nordeste 0 -- -- 28
2019-06-08 10:00:00 18.9 24 Nordeste 35 Nordeste 0 -- -- 31
2019-06-08 09:00:00 16.9 23 Nordeste 32 Nordeste 0 -- -- 35
2019-06-08 08:00:00 13.5 10 Nordeste 16 Nordeste 0 -- -- 47
2019-06-08 07:00:00 10.8 8 Norte 10 Norte 0 -- -- 52
2019-06-08 06:00:00 11.4 3 Este 15 Este 0 -- -- 50
2019-06-08 05:00:00 13.3 10 Este 15 Este 0 -- -- 44
2019-06-08 04:00:00 13 9 Este 17 Este 0 -- -- 44
2019-06-08 03:00:00 12.7 10 Este 16 Este 0 -- -- 45
2019-06-08 02:00:00 12.1 7 Norte 16 Norte 0 -- -- 48
2019-06-08 01:00:00 14.6 13 Noroeste 19 Noroeste 0 -- -- 42
2019-06-08 00:00:00 15.3 10 Noroeste 16 Noroeste 0 -- -- 40
2019-06-07 23:00:00 16 7 Noroeste 16 Noroeste 0 -- -- 38
2019-06-07 22:00:00 17.4 6 Noroeste 15 Oeste 0 -- -- 34
2019-06-07 21:00:00 20.4 6 Oeste 19 Sudoeste 0 -- -- 29
2019-06-07 20:00:00 21.5 10 Oeste 22 Oeste 0 -- -- 26
2019-06-07 19:00:00 21.5 9 Noroeste 24 Noroeste 0 -- -- 26
2019-06-07 18:00:00 21.6 13 Noroeste 29 Oeste 0 -- -- 27
2019-06-07 17:00:00 21.1 9 Noroeste 26 Oeste 0 -- -- 27
2019-06-07 16:00:00 20.9 12 Oeste 30 Oeste 0 -- -- 30
2019-06-07 15:00:00 19.7 10 Oeste 28 Noroeste 0 -- -- 32
2019-06-07 14:00:00 18.3 13 Noroeste 25 Noroeste 0 -- -- 36
2019-06-07 13:00:00 17.2 12 Noroeste 26 Sudoeste 0 -- -- 40
2019-06-07 12:00:00 15.3 14 Noroeste 27 Noroeste 0 -- -- 45
2019-06-07 11:00:00 14 12 Noroeste 29 Oeste 0 -- -- 56
2019-06-07 10:00:00 12.4 10 Oeste 23 Oeste 0 -- -- 64
2019-06-07 09:00:00 9.4 5 Sudoeste 11 Oeste 0 -- -- 92
2019-06-07 08:00:00 8 3 Sur 12 Oeste 0 -- -- 96
2019-06-07 07:00:00 7.5 4 Sudoeste 11 Oeste 0 -- -- 94
2019-06-07 06:00:00 7.9 5 Oeste 18 Sudoeste 0 -- -- 93
2019-06-07 05:00:00 8.6 8 Sudoeste 23 Oeste 0 -- -- 91
2019-06-07 04:00:00 9.6 10 Oeste 28 Sudoeste 0 -- -- 88
2019-06-07 03:00:00 11.1 12 Sudoeste 27 Sudoeste 0 -- -- 90
2019-06-07 02:00:00 11.2 13 Sudoeste 33 Sudoeste 0.2 -- -- 90
2019-06-07 01:00:00 12.3 13 Sudoeste 51 Sudoeste 0 -- -- 88
2019-06-07 00:00:00 15.3 23 Sudoeste 56 Sudoeste 0 -- -- 72
2019-06-06 23:00:00 17.3 31 Sudoeste 52 Sudoeste 0 -- -- 57
2019-06-06 22:00:00 18.4 29 Sudoeste 51 Sudoeste 0 -- -- 49
2019-06-06 21:00:00 19.5 37 Sudoeste 54 Sudoeste 0 -- -- 43
2019-06-06 20:00:00 20.5 29 Sudoeste 53 Sudoeste 0 -- -- 38
2019-06-06 19:00:00 22.2 27 Sudoeste 53 Sur 0 -- -- 32
2019-06-06 18:00:00 22 30 Sudoeste 47 Sur 0 -- -- 31
2019-06-06 17:00:00 22.4 23 Sudoeste 44 Sudoeste 0 -- -- 29
2019-06-06 16:00:00 21.8 21 Sudoeste 38 Sur 0 -- -- 28
2019-06-06 15:00:00 20.7 23 Sudoeste 36 Sudoeste 0 -- -- 31
2019-06-06 14:00:00 19 16 Sudoeste 32 Sudoeste 0 -- -- 33
2019-06-06 13:00:00 17.6 20 Sur 33 Sur 0 -- -- 35
2019-06-06 12:00:00 16.1 15 Sudoeste 26 Sur 0 -- -- 42
2019-06-06 11:00:00 14.2 12 Sur 20 Sudoeste 0 -- -- 51
2019-06-06 10:00:00 12.2 11 Sur 17 Sur 0 -- -- 59
2019-06-06 09:00:00 9.9 9 Sur 14 Sur 0 -- -- 68
2019-06-06 08:00:00 8.2 6 Sur 12 Sudeste 0 -- -- 73
2019-06-06 07:00:00 7.3 7 Sudeste 11 Sudeste 0 -- -- 74
2019-06-06 06:00:00 7.9 4 Sudeste 8 Sur 0 -- -- 69
2019-06-06 05:00:00 8.9 5 Sur 10 Sudoeste 0 -- -- 66
2019-06-06 04:00:00 9.5 5 Sudoeste 13 Sudoeste 0 -- -- 62
2019-06-06 03:00:00 10.5 5 Sudoeste 13 Sudoeste 0 -- -- 57
2019-06-06 02:00:00 11.2 5 Sudoeste 14 Oeste 0 -- -- 52
2019-06-06 01:00:00 12.6 6 Oeste 17 Noroeste 0 -- -- 47
2019-06-06 00:00:00 13.7 8 Oeste 21 Oeste 0 -- -- 43
2019-06-05 23:00:00 15.3 11 Oeste 22 Oeste 0 -- -- 38
2019-06-05 22:00:00 16.8 9 Oeste 24 Oeste 0 -- -- 34
2019-06-05 21:00:00 18.9 10 Oeste 25 Oeste 0 -- -- 30
2019-06-05 20:00:00 20.9 11 Oeste 27 Sudoeste 0 -- -- 26
2019-06-05 19:00:00 19.6 9 Oeste 27 Noroeste 0 -- -- 31
2019-06-05 18:00:00 21.6 12 Noroeste 30 Oeste 0 -- -- 28
2019-06-05 17:00:00 21.9 14 Oeste 32 Oeste 0 -- -- 27
2019-06-05 16:00:00 19.8 15 Oeste 33 Noroeste 0 -- -- 31
2019-06-05 15:00:00 19.5 17 Oeste 38 Oeste 0 -- -- 32
2019-06-05 14:00:00 18.3 14 Oeste 35 Noroeste 0 -- -- 36
2019-06-05 13:00:00 17.6 21 Oeste 39 Sudoeste 0 -- -- 39
2019-06-05 12:00:00 15.1 22 Noroeste 39 Noroeste 0 -- -- 46
2019-06-05 11:00:00 14.9 18 Noroeste 40 Noroeste 0 -- -- 48
2019-06-05 10:00:00 13.6 14 Oeste 31 Noroeste 0 -- -- 53
2019-06-05 09:00:00 11.9 16 Oeste 32 Noroeste 0 -- -- 61
2019-06-05 08:00:00 10.4 12 Oeste 26 Sudoeste 0 -- -- 68
2019-06-05 07:00:00 9.6 10 Oeste 33 Noroeste 0 -- -- 70
2019-06-05 06:00:00 10.1 13 Oeste 35 Oeste 0 -- -- 68
2019-06-05 05:00:00 10.4 13 Oeste 31 Oeste 0 -- -- 68
2019-06-05 04:00:00 10.8 12 Oeste 28 Sudoeste 0 -- -- 68
2019-06-05 03:00:00 10.9 10 Oeste 25 Sudoeste 0 -- -- 69
2019-06-05 02:00:00 11.9 12 Sudoeste 27 Oeste 0 -- -- 64
2019-06-05 01:00:00 13.3 14 Oeste 38 Sudoeste 0 -- -- 55
2019-06-05 00:00:00 15.5 15 Oeste 34 Oeste 0 -- -- 54
2019-06-04 23:00:00 16.6 16 Oeste 33 Oeste 0 -- -- 55
2019-06-04 22:00:00 17.7 13 Oeste 27 Sudoeste 0 -- -- 57
2019-06-04 21:00:00 20 14 Oeste 35 Oeste 0 -- -- 47
2019-06-04 20:00:00 21.4 16 Oeste 41 Oeste 0 -- -- 53
2019-06-04 19:00:00 22.9 18 Oeste 37 Oeste 0 -- -- 45
2019-06-04 18:00:00 24.7 15 Oeste 39 Sudoeste 0 -- -- 37
2019-06-04 17:00:00 25.5 14 Oeste 33 Oeste 0 -- -- 35
2019-06-04 16:00:00 25.4 18 Sudoeste 38 Sudoeste 0 -- -- 37
2019-06-04 15:00:00 25 19 Sudoeste 37 Sudoeste 0 -- -- 38
2019-06-04 14:00:00 23.8 20 Sudoeste 31 Sudoeste 0 -- -- 41
2019-06-04 13:00:00 22.5 15 Sudoeste 31 Sudoeste 0 -- -- 46
2019-06-04 12:00:00 20.7 15 Sudoeste 28 Sudoeste 0 -- -- 50
2019-06-04 11:00:00 18.9 16 Sudoeste 32 Sudoeste 0 -- -- 60
2019-06-04 10:00:00 17.4 14 Sudoeste 23 Sudoeste 0 -- -- 67
2019-06-04 09:00:00 15.8 12 Sudoeste 21 Sudoeste 0 -- -- 76
2019-06-04 08:00:00 14.6 10 Sudoeste 18 Sudoeste 0 -- -- 82
2019-06-04 07:00:00 13.9 6 Sudoeste 13 Sudoeste 0 -- -- 81
2019-06-04 06:00:00 15.3 8 Sudoeste 17 Sudoeste 0 -- -- 78
2019-06-04 05:00:00 16.2 8 Sur 13 Sudoeste 0 -- -- 73
2019-06-04 04:00:00 17.2 6 Sudoeste 11 Sudoeste 0 -- -- 69
2019-06-04 03:00:00 18.1 4 Oeste 14 Sudoeste 0 -- -- 68
2019-06-04 02:00:00 19.5 5 Oeste 14 Sudoeste 0 -- -- 61
2019-06-04 01:00:00 21.1 6 Oeste 16 Oeste 0 -- -- 54
2019-06-04 00:00:00 22.8 6 Oeste 20 Oeste 0 -- -- 49
2019-06-03 23:00:00 24.1 6 Oeste 20 Oeste 0 -- -- 42
2019-06-03 22:00:00 26.2 12 Oeste 30 Sudoeste 0 -- -- 34
2019-06-03 21:00:00 29.4 14 Sudoeste 37 Sudoeste 0 -- -- 22
2019-06-03 20:00:00 30.9 20 Sudoeste 40 Sudoeste 0 -- -- 18
2019-06-03 19:00:00 32 24 Sudoeste 44 Sudoeste 0 -- -- 15
2019-06-03 18:00:00 32.7 20 Sudoeste 46 Sudoeste 0 -- -- 15
2019-06-03 17:00:00 32.6 26 Sudoeste 46 Sudoeste 0 -- -- 15
2019-06-03 16:00:00 32.6 25 Sudoeste 47 Sudoeste 0 -- -- 14
2019-06-03 15:00:00 32.3 18 Sudoeste 40 Sudoeste 0 -- -- 15
2019-06-03 14:00:00 31.5 16 Sudoeste 33 Sudoeste 0 -- -- 13
2019-06-03 13:00:00 29.7 14 Sudoeste 32 Sudoeste 0 -- -- 16
2019-06-03 12:00:00 27 14 Sur 27 Sur 0 -- -- 23
2019-06-03 11:00:00 23.1 9 Sur 15 Sur 0 -- -- 35
2019-06-03 10:00:00 20.8 9 Sur 13 Sur 0 -- -- 40
2019-06-03 09:00:00 19.2 6 Sudeste 12 Sudeste 0 -- -- 43
2019-06-03 08:00:00 18.4 7 Sudeste 12 Sudeste 0 -- -- 44
2019-06-03 07:00:00 18.4 6 Sudeste 9 Sudeste 0 -- -- 43
2019-06-03 06:00:00 18.8 5 Sur 9 Sur 0 -- -- 42
2019-06-03 05:00:00 19.8 5 Sudoeste 9 Sur 0 -- -- 39
2019-06-03 04:00:00 20.7 5 Sur 10 Sur 0 -- -- 36
2019-06-03 03:00:00 21.5 5 Sudoeste 14 Sudoeste 0 -- -- 35
2019-06-03 02:00:00 22.8 6 Sudoeste 11 Sudoeste 0 -- -- 30
2019-06-03 01:00:00 23.7 5 Sudoeste 10 Noroeste 0 -- -- 28
2019-06-03 00:00:00 25.1 8 Noroeste 18 Noroeste 0 -- -- 26
2019-06-02 23:00:00 26.8 12 Noroeste 24 Noroeste 0 -- -- 23
2019-06-02 22:00:00 28.5 13 Oeste 29 Oeste 0 -- -- 20
2019-06-02 21:00:00 30.6 10 Oeste 16 Oeste 0 -- -- 18
2019-06-02 20:00:00 32.6 6 Oeste 24 Oeste 0 -- -- 18
2019-06-02 19:00:00 33.3 10 Sudoeste 28 Sudoeste 0 -- -- 17
2019-06-02 18:00:00 34.4 8 Oeste 28 Oeste 0 -- -- 17
2019-06-02 17:00:00 33.9 11 Sudoeste 30 Sudoeste 0 -- -- 18
2019-06-02 16:00:00 33.7 11 Sur 26 Sudoeste 0 -- -- 18
2019-06-02 15:00:00 33.1 9 Sudoeste 26 Sudoeste 0 -- -- 20
2019-06-02 14:00:00 32.1 8 Noroeste 18 Sur 0 -- -- 21
2019-06-02 13:00:00 31 6 Sudoeste 15 Sudoeste 0 -- -- 23
2019-06-02 12:00:00 29.5 6 Sudoeste 13 Sur 0 -- -- 24
2019-06-02 11:00:00 26.8 3 Sur 9 Sur 0 -- -- 29
2019-06-02 10:00:00 24.1 5 Sudoeste 8 Sudoeste 0 -- -- 32
2019-06-02 09:00:00 23 3 Sudeste 12 Este 0 -- -- 32
2019-06-02 08:00:00 21.4 7 Este 8 Este 0 -- -- 35
2019-06-02 07:00:00 20.7 5 Sudeste 12 Sudeste 0 -- -- 34
2019-06-02 06:00:00 22.3 8 Este 12 Sudeste 0 -- -- 30
2019-06-02 05:00:00 21.6 5 Sudeste 19 Sudeste 0 -- -- 31
2019-06-02 04:00:00 22 9 Este 13 Este 0 -- -- 32
2019-06-02 03:00:00 23 0 Calma 20 Noroeste 0 -- -- 30
2019-06-02 02:00:00 24.7 7 Sudeste 13 Sudeste 0 -- -- 28
2019-06-02 01:00:00 25.7 9 Este 15 Este 0 -- -- 27
2019-06-02 00:00:00 27.5 6 Sudeste 8 Sudeste 0 -- -- 23
2019-06-01 23:00:00 26.5 5 Sudeste 11 Norte 0 -- -- 24
2019-06-01 22:00:00 27.2 8 Norte 12 Norte 0 -- -- 24
2019-06-01 21:00:00 31 9 Norte 18 Noroeste 0 -- -- 20
2019-06-01 20:00:00 33 9 Noroeste 25 Norte 0 -- -- 17
2019-06-01 19:00:00 33.6 7 Sudeste 22 Nordeste 0 -- -- 15
2019-06-01 18:00:00 33.8 10 Sur 23 Oeste 0 -- -- 15
2019-06-01 17:00:00 33.8 5 Noroeste 24 Este 0 -- -- 16
2019-06-01 16:00:00 33.4 8 Nordeste 24 Este 0 -- -- 16
2019-06-01 15:00:00 32.4 8 Sudeste 25 Nordeste 0 -- -- 18
2019-06-01 14:00:00 31.5 8 Nordeste 20 Nordeste 0 -- -- 20
2019-06-01 13:00:00 30.2 6 Norte 21 Nordeste 0 -- -- 23
2019-06-01 12:00:00 29 12 Este 22 Noroeste 0 -- -- 23
2019-06-01 11:00:00 27.4 7 Noroeste 13 Noroeste 0 -- -- 28
2019-06-01 10:00:00 25.3 3 Sudoeste 10 Sudeste 0 -- -- 27
2019-06-01 09:00:00 24.1 2 Oeste 4 Noroeste 0 -- -- 27
2019-06-01 08:00:00 21.3 0 Calma 6 Noroeste 0 -- -- 33
2019-06-01 07:00:00 19.3 3 Sudoeste 15 Oeste 0 -- -- 30
2019-06-01 06:00:00 23.1 9 Este 17 Sudeste 0 -- -- 25
2019-06-01 05:00:00 23.5 10 Este 15 Este 0 -- -- 24
2019-06-01 04:00:00 24.3 10 Sudeste 15 Este 0 -- -- 23
2019-06-01 03:00:00 24.7 9 Este 15 Este 0 -- -- 23
2019-06-01 02:00:00 24.1 8 Este 19 Sudeste 0 -- -- 25
2019-06-01 01:00:00 23.9 13 Este 20 Este 0 -- -- 29
2019-06-01 00:00:00 23.9 13 Nordeste 15 Nordeste 0 -- -- 32
2019-05-31 23:00:00 24.5 9 Nordeste 11 Nordeste 0 -- -- 31
2019-05-31 22:00:00 27.2 10 Nordeste 11 Nordeste 0 -- -- 27
2019-05-31 21:00:00 30.7 7 Nordeste 15 Nordeste 0 -- -- 22
2019-05-31 20:00:00 31.7 9 Norte 21 Nordeste 0 -- -- 21
2019-05-31 19:00:00 32.6 9 Noroeste 29 Nordeste 0 -- -- 19
2019-05-31 18:00:00 32.8 10 Norte 27 Este 0 -- -- 18
2019-05-31 17:00:00 32.5 12 Nordeste 26 Este 0 -- -- 17
2019-05-31 16:00:00 32.2 8 Noroeste 27 Nordeste 0 -- -- 17
2019-05-31 15:00:00 32 12 Nordeste 29 Nordeste 0 -- -- 16
2019-05-31 14:00:00 31 10 Norte 21 Este 0 -- -- 20
2019-05-31 13:00:00 29.8 9 Este 21 Nordeste 0 -- -- 23
2019-05-31 12:00:00 28.4 8 Nordeste 20 Nordeste 0 -- -- 24
2019-05-31 11:00:00 26.9 7 Nordeste 17 Nordeste 0 -- -- 27
2019-05-31 10:00:00 22.7 4 Sur 10 Sudoeste 0 -- -- 31
2019-05-31 09:00:00 22.4 4 Sudeste 14 Nordeste 0 -- -- 31
2019-05-31 08:00:00 19.9 13 Nordeste 15 Nordeste 0 -- -- 35
2019-05-31 07:00:00 19.5 6 Este 21 Nordeste 0 -- -- 33
2019-05-31 06:00:00 19.8 20 Nordeste 28 Nordeste 0 -- -- 32
2019-05-31 05:00:00 20.2 22 Nordeste 28 Nordeste 0 -- -- 33
2019-05-31 04:00:00 21.3 12 Este 19 Este 0 -- -- 31
2019-05-31 03:00:00 21 13 Este 17 Este 0 -- -- 30
2019-05-31 02:00:00 22.1 14 Este 18 Este 0 -- -- 29
2019-05-31 01:00:00 22.1 18 Nordeste 19 Nordeste 0 -- -- 34
2019-05-31 00:00:00 22.6 16 Nordeste 18 Nordeste 0 -- -- 33
2019-05-30 23:00:00 23.8 15 Nordeste 16 Nordeste 0 -- -- 24
2019-05-30 22:00:00 24.5 10 Nordeste 15 Nordeste 0 -- -- 25
2019-05-30 21:00:00 28.9 13 Nordeste 23 Nordeste 0 -- -- 19
2019-05-30 20:00:00 30.3 12 Nordeste 24 Nordeste 0 -- -- 18
2019-05-30 19:00:00 30.4 12 Este 32 Nordeste 0 -- -- 18
2019-05-30 18:00:00 30.7 15 Este 31 Este 0 -- -- 17
2019-05-30 17:00:00 30.8 19 Nordeste 34 Nordeste 0 -- -- 18
2019-05-30 16:00:00 29.8 25 Nordeste 36 Nordeste 0 -- -- 18
2019-05-30 15:00:00 29 19 Nordeste 39 Nordeste 0 -- -- 20
2019-05-30 14:00:00 27.7 22 Nordeste 42 Nordeste 0 -- -- 22
2019-05-30 13:00:00 26.2 28 Nordeste 45 Nordeste 0 -- -- 24
2019-05-30 12:00:00 24.8 30 Nordeste 42 Nordeste 0 -- -- 29
2019-05-30 11:00:00 22.7 35 Nordeste 46 Nordeste 0 -- -- 33
2019-05-30 10:00:00 21.1 25 Nordeste 44 Nordeste 0 -- -- 36
2019-05-30 09:00:00 19.4 33 Nordeste 44 Nordeste 0 -- -- 37
2019-05-30 08:00:00 18.4 27 Nordeste 45 Este 0 -- -- 38
2019-05-30 07:00:00 17 28 Nordeste 40 Nordeste 0 -- -- 40
2019-05-30 06:00:00 17.6 23 Nordeste 30 Nordeste 0 -- -- 43
2019-05-30 05:00:00 18.7 15 Este 26 Este 0 -- -- 41
2019-05-30 04:00:00 19.7 12 Este 42 Nordeste 0 -- -- 38
2019-05-30 03:00:00 20.9 28 Nordeste 39 Nordeste 0 -- -- 33
2019-05-30 02:00:00 19.1 16 Nordeste 27 Nordeste 0 -- -- 32
2019-05-30 01:00:00 20.6 20 Nordeste 26 Nordeste 0 -- -- 30
2019-05-30 00:00:00 21.1 18 Nordeste 22 Nordeste 0 -- -- 33
2019-05-29 23:00:00 21.1 15 Nordeste 19 Nordeste 0 -- -- 37
2019-05-29 22:00:00 23.1 6 Nordeste 13 Nordeste 0 -- -- 32
2019-05-29 21:00:00 26.5 11 Nordeste 21 Nordeste 0 -- -- 26
2019-05-29 20:00:00 27.9 9 Nordeste 25 Este 0 -- -- 25
2019-05-29 19:00:00 28.3 12 Nordeste 26 Nordeste 0 -- -- 23
2019-05-29 18:00:00 28.2 11 Norte 30 Nordeste 0 -- -- 24
2019-05-29 17:00:00 28.1 13 Nordeste 34 Nordeste 0 -- -- 23
2019-05-29 16:00:00 27.3 14 Nordeste 35 Nordeste 0 -- -- 25
2019-05-29 15:00:00 26.1 21 Nordeste 40 Norte 0 -- -- 26
2019-05-29 14:00:00 24.7 24 Nordeste 39 Nordeste 0 -- -- 27
2019-05-29 13:00:00 23.7 23 Nordeste 40 Nordeste 0 -- -- 28
2019-05-29 12:00:00 21.8 27 Nordeste 45 Nordeste 0 -- -- 31
2019-05-29 11:00:00 20.3 32 Nordeste 44 Nordeste 0 -- -- 33
2019-05-29 10:00:00 18.7 30 Nordeste 51 Nordeste 0 -- -- 35
2019-05-29 09:00:00 17.8 35 Nordeste 43 Nordeste 0 -- -- 37
2019-05-29 08:00:00 16.5 17 Nordeste 25 Nordeste 0 -- -- 41
2019-05-29 07:00:00 15.5 13 Nordeste 26 Nordeste 0 -- -- 42
2019-05-29 06:00:00 16.4 14 Este 35 Este 0 -- -- 40
2019-05-29 05:00:00 17.3 28 Nordeste 37 Nordeste 0 -- -- 37
2019-05-29 04:00:00 18 15 Nordeste 30 Norte 0 -- -- 34
2019-05-29 03:00:00 19.2 14 Este 35 Este 0 -- -- 33
2019-05-29 02:00:00 20 24 Nordeste 48 Nordeste 0 -- -- 32
2019-05-29 01:00:00 21 31 Nordeste 45 Nordeste 0 -- -- 31
2019-05-29 00:00:00 21.9 29 Nordeste 36 Nordeste 0 -- -- 29
2019-05-28 23:00:00 22.3 19 Nordeste 27 Nordeste 0 -- -- 28
2019-05-28 22:00:00 23.3 10 Norte 26 Noroeste 0 -- -- 27
2019-05-28 21:00:00 26.7 13 Noroeste 26 Noroeste 0 -- -- 23
2019-05-28 20:00:00 28.6 13 Noroeste 25 Noroeste 0 -- -- 20
2019-05-28 19:00:00 29.6 14 Noroeste 26 Oeste 0 -- -- 19
2019-05-28 18:00:00 29.7 10 Noroeste 27 Oeste 0 -- -- 22
2019-05-28 17:00:00 29.9 11 Norte 25 Norte 0 -- -- 23
2019-05-28 16:00:00 29 10 Norte 25 Nordeste 0 -- -- 26
2019-05-28 15:00:00 28.2 12 Nordeste 25 Norte 0 -- -- 27
2019-05-28 14:00:00 27.4 10 Norte 27 Norte 0 -- -- 29
2019-05-28 13:00:00 26.7 8 Norte 23 Norte 0 -- -- 32
2019-05-28 12:00:00 25.3 11 Nordeste 27 Nordeste 0 -- -- 36
2019-05-28 11:00:00 23.8 14 Nordeste 23 Norte 0 -- -- 39
2019-05-28 10:00:00 22.5 12 Nordeste 20 Norte 0 -- -- 43
2019-05-28 09:00:00 20.3 15 Nordeste 26 Nordeste 0 -- -- 48
2019-05-28 08:00:00 17.8 23 Nordeste 31 Nordeste 0 -- -- 52
2019-05-28 07:00:00 17 23 Nordeste 28 Nordeste 0 -- -- 53
2019-05-28 06:00:00 17.1 14 Nordeste 23 Nordeste 0 -- -- 52
2019-05-28 05:00:00 16.8 10 Nordeste 18 Nordeste 0 -- -- 53
2019-05-28 04:00:00 17.3 13 Nordeste 17 Nordeste 0 -- -- 53
2019-05-28 03:00:00 18.4 7 Norte 17 Noroeste 0 -- -- 49
2019-05-28 02:00:00 20.1 10 Norte 23 Noroeste 0 -- -- 44
2019-05-28 01:00:00 21.1 15 Noroeste 22 Noroeste 0 -- -- 41
2019-05-28 00:00:00 22 17 Noroeste 23 Noroeste 0 -- -- 38
2019-05-27 23:00:00 22.7 17 Noroeste 23 Noroeste 0 -- -- 36
2019-05-27 22:00:00 24.5 14 Noroeste 27 Noroeste 0 -- -- 33
2019-05-27 21:00:00 27.4 14 Noroeste 28 Noroeste 0 -- -- 28
2019-05-27 20:00:00 29 14 Noroeste 28 Norte 0 -- -- 27
2019-05-27 19:00:00 29.5 11 Noroeste 26 Noroeste 0 -- -- 27
2019-05-27 18:00:00 30.2 15 Noroeste 38 Noroeste 0 -- -- 27
2019-05-27 17:00:00 30.6 13 Oeste 31 Noroeste 0 -- -- 27
2019-05-27 16:00:00 29.9 18 Noroeste 36 Noroeste 0 -- -- 28
2019-05-27 15:00:00 29.5 16 Noroeste 32 Noroeste 0 -- -- 28
2019-05-27 14:00:00 28.6 11 Oeste 25 Noroeste 0 -- -- 28
2019-05-27 13:00:00 27.7 9 Noroeste 22 Oeste 0 -- -- 29
2019-05-27 12:00:00 26.1 6 Noroeste 14 Noroeste 0 -- -- 32
2019-05-27 11:00:00 24 5 Oeste 13 Oeste 0 -- -- 35
2019-05-27 10:00:00 21.8 4 Sudoeste 9 Sur 0 -- -- 40
2019-05-27 09:00:00 20.6 2 Noroeste 8 Sudeste 0 -- -- 41
2019-05-27 08:00:00 19.1 3 Este 7 Este 0 -- -- 44
2019-05-27 07:00:00 17.7 4 Norte 10 Noroeste 0 -- -- 45
2019-05-27 06:00:00 17.9 4 Oeste 9 Norte 0 -- -- 44
2019-05-27 05:00:00 18.5 7 Norte 13 Noroeste 0 -- -- 43
2019-05-27 04:00:00 18.7 7 Noroeste 14 Este 0 -- -- 41
2019-05-27 03:00:00 20.6 8 Este 14 Este 0 -- -- 37
2019-05-27 02:00:00 20.1 8 Este 14 Nordeste 0 -- -- 39
2019-05-27 01:00:00 20.4 11 Nordeste 19 Nordeste 0 -- -- 38
2019-05-27 00:00:00 20.6 14 Nordeste 19 Nordeste 0 -- -- 38